Time;durP1;ratioP1;P1;durP2;ratioP2;P2;SDS_P1;SDS_P2;PMS_P1;PMS_P2;Temp;Humidity;BMP_temperature;BMP_pressure;BME280_temperature;BME280_humidity;BME280_pressure;Samples;Min_cycle;Max_cycle;Signal;HPM_P1;HPM_P2
2024/01/16 00:00:27;;;;;;;13.00;8.93;;;2.00;99.90;;;;;;5055680;28;20578;-77
2024/01/16 00:02:54;;;;;;;14.73;9.43;;;2.10;99.90;;;;;;5057189;28;20521;-79
2024/01/16 00:05:21;;;;;;;13.70;9.03;;;2.10;99.90;;;;;;5057547;28;20530;-79
2024/01/16 00:07:48;;;;;;;14.10;8.70;;;2.00;99.90;;;;;;5065542;28;20835;-77
2024/01/16 00:10:17;;;;;;;18.20;9.33;;;2.00;99.90;;;;;;5056488;28;20996;-78
2024/01/16 00:12:44;;;;;;;14.60;9.53;;;2.10;99.90;;;;;;5056206;28;20967;-78
2024/01/16 00:15:11;;;;;;;11.97;7.80;;;2.10;99.90;;;;;;5056038;28;20566;-78
2024/01/16 00:17:39;;;;;;;13.67;8.73;;;2.10;99.90;;;;;;5056475;28;20457;-79
2024/01/16 00:20:08;;;;;;;15.23;9.63;;;2.10;99.90;;;;;;5055430;28;20487;-79
2024/01/16 00:22:34;;;;;;;19.93;9.03;;;2.10;99.90;;;;;;5056867;28;20464;-78
2024/01/16 00:25:01;;;;;;;12.53;8.30;;;2.10;99.90;;;;;;5056119;28;20916;-78
2024/01/16 00:27:31;;;;;;;11.93;8.23;;;2.10;99.90;;;;;;5057231;28;20438;-78
2024/01/16 00:29:58;;;;;;;15.33;9.73;;;2.20;99.90;;;;;;5064131;28;20451;-79
2024/01/16 00:32:25;;;;;;;21.17;10.13;;;2.10;99.90;;;;;;5056320;28;20456;-78
2024/01/16 00:34:53;;;;;;;13.70;9.57;;;2.20;99.90;;;;;;5055840;28;20486;-79
2024/01/16 00:37:20;;;;;;;13.50;9.37;;;2.10;99.90;;;;;;5056526;28;20466;-79
2024/01/16 00:39:47;;;;;;;34.30;19.40;;;2.10;99.90;;;;;;5067785;28;20482;-76
2024/01/16 00:42:14;;;;;;;19.90;12.63;;;2.10;99.90;;;;;;5061616;28;20460;-77
2024/01/16 00:44:41;;;;;;;16.60;11.03;;;2.10;99.90;;;;;;5059157;28;21191;-77
2024/01/16 00:47:08;;;;;;;11.87;8.23;;;2.10;99.90;;;;;;5054621;28;20456;-78
2024/01/16 00:49:36;;;;;;;11.70;8.60;;;2.10;99.90;;;;;;5054132;28;20452;-78
2024/01/16 00:52:06;;;;;;;13.83;9.30;;;2.10;99.90;;;;;;5054557;28;20464;-78
2024/01/16 00:54:33;;;;;;;12.40;8.70;;;2.10;99.90;;;;;;5054136;28;20481;-77
2024/01/16 00:57:00;;;;;;;15.37;9.10;;;2.20;99.90;;;;;;5053497;28;20509;-78
2024/01/16 00:59:27;;;;;;;12.17;9.90;;;2.10;99.90;;;;;;5053324;28;20960;-78
2024/01/16 01:01:54;;;;;;;15.57;9.00;;;2.00;99.90;;;;;;5053891;28;20451;-78
2024/01/16 01:04:21;;;;;;;16.07;8.40;;;2.00;99.90;;;;;;5054386;28;20489;-78
2024/01/16 01:06:47;;;;;;;12.40;8.73;;;2.10;99.90;;;;;;5054795;28;20454;-79
2024/01/16 01:09:16;;;;;;;9.93;7.00;;;2.10;99.90;;;;;;5053697;28;20483;-77
2024/01/16 01:11:42;;;;;;;14.63;8.03;;;2.10;99.90;;;;;;5053999;28;20462;-79
2024/01/16 01:14:09;;;;;;;16.93;9.60;;;2.10;99.90;;;;;;5054562;28;20499;-77
2024/01/16 01:16:36;;;;;;;11.63;7.50;;;2.10;99.90;;;;;;5054585;28;20565;-78
2024/01/16 01:19:03;;;;;;;13.03;8.53;;;2.10;99.90;;;;;;5054145;28;20462;-77
2024/01/16 01:21:30;;;;;;;12.80;7.83;;;2.10;99.90;;;;;;5054059;28;20570;-79
2024/01/16 01:23:57;;;;;;;17.03;7.57;;;2.10;99.90;;;;;;5054943;28;21135;-79
2024/01/16 01:26:25;;;;;;;10.90;8.10;;;2.10;99.90;;;;;;5054015;28;20452;-77
2024/01/16 01:28:52;;;;;;;12.37;7.93;;;2.00;99.90;;;;;;5054312;28;20452;-77
2024/01/16 01:31:19;;;;;;;13.93;7.67;;;2.10;99.90;;;;;;5054359;28;20463;-78
2024/01/16 01:33:45;;;;;;;14.20;8.97;;;2.00;99.90;;;;;;5055247;28;20487;-79
2024/01/16 01:36:12;;;;;;;12.13;8.80;;;2.00;99.90;;;;;;5056004;28;20460;-79
2024/01/16 01:38:39;;;;;;;12.60;7.90;;;1.80;99.90;;;;;;5054562;28;20455;-79
2024/01/16 01:41:06;;;;;;;13.30;8.50;;;1.80;99.90;;;;;;5054664;28;20499;-79
2024/01/16 01:43:34;;;;;;;13.40;7.90;;;1.80;99.90;;;;;;5054969;28;20454;-80
2024/01/16 01:46:10;;;;;;;14.23;8.10;;;1.80;99.90;;;;;;5054182;28;20460;-79
2024/01/16 01:48:39;;;;;;;14.30;8.17;;;1.90;99.90;;;;;;5053919;28;20448;-79
2024/01/16 01:51:08;;;;;;;14.80;8.93;;;1.90;99.90;;;;;;5048580;28;20452;-78
2024/01/16 01:53:35;;;;;;;13.00;8.23;;;1.80;99.90;;;;;;5053422;28;20914;-77
2024/01/16 01:56:06;;;;;;;16.37;9.70;;;1.80;99.90;;;;;;5054057;28;20838;-78
2024/01/16 01:58:35;;;;;;;13.17;8.23;;;1.80;99.90;;;;;;5053474;28;20451;-77
2024/01/16 02:01:03;;;;;;;11.17;7.40;;;1.80;99.90;;;;;;5053067;28;20462;-78
2024/01/16 02:03:33;;;;;;;14.27;7.80;;;1.90;99.90;;;;;;5053187;28;20482;-78
2024/01/16 02:06:00;;;;;;;11.47;8.43;;;1.80;99.90;;;;;;5053728;28;20475;-78
2024/01/16 02:08:27;;;;;;;10.40;7.77;;;1.90;99.90;;;;;;5053984;28;20828;-78
2024/01/16 02:10:54;;;;;;;18.73;8.33;;;1.90;99.90;;;;;;5052162;28;20535;-79
2024/01/16 02:13:23;;;;;;;8.50;7.10;;;2.00;99.90;;;;;;5053980;28;20853;-78
2024/01/16 02:15:51;;;;;;;16.63;8.90;;;2.00;99.90;;;;;;5054178;28;20491;-79
2024/01/16 02:18:18;;;;;;;11.80;7.73;;;1.90;99.90;;;;;;5053457;28;20866;-78
2024/01/16 02:20:46;;;;;;;12.60;7.80;;;2.00;99.90;;;;;;5051221;28;20570;-78
2024/01/16 02:23:15;;;;;;;12.57;8.20;;;2.00;99.90;;;;;;5057158;28;20490;-78
2024/01/16 02:25:44;;;;;;;14.60;7.47;;;2.00;99.90;;;;;;5057340;28;20550;-78
2024/01/16 02:28:11;;;;;;;14.50;7.13;;;2.00;99.90;;;;;;5057248;28;20487;-78
2024/01/16 02:30:38;;;;;;;15.00;6.37;;;1.90;99.90;;;;;;5057338;28;20458;-78
2024/01/16 02:33:05;;;;;;;16.37;7.30;;;1.90;99.90;;;;;;5057056;28;20474;-78
2024/01/16 02:35:32;;;;;;;13.80;8.17;;;1.90;99.90;;;;;;5057591;28;20519;-78
2024/01/16 02:38:00;;;;;;;10.20;7.20;;;1.90;99.90;;;;;;5058067;28;20461;-78
2024/01/16 02:40:27;;;;;;;15.77;7.30;;;1.90;99.90;;;;;;5057187;28;20489;-79
2024/01/16 02:42:55;;;;;;;15.30;9.10;;;1.90;99.90;;;;;;5057187;28;20465;-79
2024/01/16 02:45:22;;;;;;;11.37;7.00;;;1.80;99.90;;;;;;5057406;28;20462;-79
2024/01/16 02:47:49;;;;;;;13.73;7.73;;;1.80;99.90;;;;;;5057033;28;20474;-78
2024/01/16 02:50:16;;;;;;;14.03;7.50;;;1.80;99.90;;;;;;5056696;28;20573;-78
2024/01/16 02:52:43;;;;;;;13.77;8.20;;;1.90;99.90;;;;;;5058102;28;20456;-78
2024/01/16 02:55:10;;;;;;;9.50;6.80;;;1.80;99.90;;;;;;5057277;28;20452;-78
2024/01/16 02:57:37;;;;;;;9.47;6.90;;;1.80;99.90;;;;;;5052442;28;20834;-78
2024/01/16 03:00:07;;;;;;;11.90;6.90;;;1.90;99.90;;;;;;5055608;28;20483;-78
2024/01/16 03:02:34;;;;;;;13.83;8.20;;;1.80;99.90;;;;;;5055963;28;20459;-77
2024/01/16 03:05:03;;;;;;;11.53;7.37;;;1.80;99.90;;;;;;5057054;28;20486;-79
2024/01/16 03:07:30;;;;;;;13.13;7.07;;;1.90;99.90;;;;;;5057893;28;20460;-79
2024/01/16 03:09:57;;;;;;;9.63;6.77;;;1.90;99.90;;;;;;5056910;28;20452;-79
2024/01/16 03:12:26;;;;;;;12.00;6.83;;;1.90;99.90;;;;;;5057448;28;20849;-78
2024/01/16 03:14:54;;;;;;;7.93;6.20;;;1.80;99.90;;;;;;5055628;28;20476;-78
2024/01/16 03:17:22;;;;;;;12.03;7.17;;;1.80;99.90;;;;;;5056298;28;20463;-78
2024/01/16 03:19:49;;;;;;;12.50;6.80;;;1.80;99.90;;;;;;5055278;28;20455;-78
2024/01/16 03:22:15;;;;;;;9.17;5.67;;;1.80;99.90;;;;;;5055978;28;20502;-79
2024/01/16 03:24:42;;;;;;;10.77;5.90;;;1.80;99.90;;;;;;5055200;28;20476;-78
2024/01/16 03:27:09;;;;;;;8.53;5.60;;;1.90;99.90;;;;;;5056208;28;20482;-78
2024/01/16 03:29:36;;;;;;;11.93;6.03;;;2.00;99.90;;;;;;5057966;28;20474;-79
2024/01/16 03:32:04;;;;;;;13.30;6.90;;;2.00;99.90;;;;;;5058090;28;20528;-77
2024/01/16 03:34:32;;;;;;;8.40;6.17;;;2.10;99.90;;;;;;5073838;28;20501;-77
2024/01/16 03:36:59;;;;;;;9.70;6.17;;;2.10;99.90;;;;;;5075188;28;20486;-77
2024/01/16 03:39:26;;;;;;;7.50;6.27;;;2.10;99.90;;;;;;5058656;28;20460;-79
2024/01/16 03:41:53;;;;;;;8.60;6.23;;;2.20;99.90;;;;;;5055924;28;20488;-79
2024/01/16 03:44:20;;;;;;;9.30;6.97;;;2.10;99.90;;;;;;5055855;28;20828;-77
2024/01/16 03:46:46;;;;;;;12.77;7.30;;;2.10;99.90;;;;;;5055854;28;20456;-78
2024/01/16 03:49:13;;;;;;;16.63;8.10;;;2.10;99.90;;;;;;5055614;28;20464;-78
2024/01/16 03:51:45;;;;;;;9.80;6.97;;;2.10;99.90;;;;;;5055405;28;20454;-77
2024/01/16 03:54:12;;;;;;;11.93;8.07;;;2.10;99.90;;;;;;5056331;28;20488;-78
2024/01/16 03:56:39;;;;;;;12.10;9.07;;;2.10;99.90;;;;;;5055489;28;20461;-77
2024/01/16 03:59:06;;;;;;;12.00;9.33;;;2.10;99.90;;;;;;5055525;28;20466;-79
2024/01/16 04:01:33;;;;;;;11.57;8.80;;;2.10;99.90;;;;;;5055005;28;20479;-78
2024/01/16 04:04:00;;;;;;;16.07;9.70;;;2.10;99.90;;;;;;5055892;28;20484;-77
2024/01/16 04:06:28;;;;;;;14.43;9.73;;;2.10;99.90;;;;;;5055503;28;20452;-79
2024/01/16 04:08:57;;;;;;;15.17;10.00;;;2.00;99.90;;;;;;5055147;28;20456;-78
2024/01/16 04:11:23;;;;;;;14.97;8.80;;;2.00;99.90;;;;;;5055994;28;20826;-78
2024/01/16 04:13:50;;;;;;;14.13;9.53;;;2.00;99.90;;;;;;5056703;28;20478;-78
2024/01/16 04:16:17;;;;;;;12.63;9.10;;;2.00;99.90;;;;;;5057383;28;20445;-78
2024/01/16 04:18:44;;;;;;;16.27;9.63;;;2.00;99.90;;;;;;5057018;28;20539;-77
2024/01/16 04:21:11;;;;;;;14.60;9.50;;;1.90;99.90;;;;;;5057004;28;20923;-78
2024/01/16 04:23:38;;;;;;;12.27;9.77;;;1.90;99.90;;;;;;5059858;28;20476;-78
2024/01/16 04:26:07;;;;;;;14.70;10.20;;;2.00;99.90;;;;;;5061202;28;20448;-78
2024/01/16 04:28:34;;;;;;;14.60;9.93;;;2.10;99.90;;;;;;5061218;28;20448;-78
2024/01/16 04:31:01;;;;;;;13.43;9.70;;;2.00;99.90;;;;;;5058887;28;20448;-78
2024/01/16 04:33:28;;;;;;;15.37;11.53;;;2.10;99.90;;;;;;5060863;28;20467;-78
2024/01/16 04:35:56;;;;;;;12.90;9.47;;;2.10;99.90;;;;;;5059534;28;20444;-79
2024/01/16 04:38:23;;;;;;;17.27;10.40;;;2.10;99.90;;;;;;5057411;28;20452;-77
2024/01/16 04:40:53;;;;;;;16.03;11.10;;;2.20;99.90;;;;;;5057781;28;20488;-78
2024/01/16 04:43:21;;;;;;;12.30;9.30;;;2.20;99.90;;;;;;5060413;28;20475;-78
2024/01/16 04:45:48;;;;;;;14.53;9.77;;;2.20;99.90;;;;;;5054778;28;20474;-78
2024/01/16 04:48:14;;;;;;;12.93;8.63;;;2.20;99.90;;;;;;5055321;28;20944;-79
2024/01/16 04:50:41;;;;;;;14.80;10.87;;;2.20;99.90;;;;;;5056790;28;20452;-77
2024/01/16 04:53:08;;;;;;;12.83;10.40;;;2.10;99.90;;;;;;5055333;28;20494;-79
2024/01/16 04:55:35;;;;;;;18.03;9.90;;;2.00;99.90;;;;;;5055500;28;20456;-78
2024/01/16 04:58:01;;;;;;;16.37;11.13;;;2.00;99.90;;;;;;5054835;28;20459;-78
2024/01/16 05:00:29;;;;;;;13.03;10.20;;;2.00;99.90;;;;;;5053747;28;20452;-78
2024/01/16 05:02:56;;;;;;;14.60;10.10;;;2.10;99.90;;;;;;5054314;28;20462;-78
2024/01/16 05:05:23;;;;;;;16.00;11.23;;;2.10;99.90;;;;;;5055001;28;20456;-78
2024/01/16 05:07:51;;;;;;;17.93;10.43;;;2.20;99.90;;;;;;5056492;28;20466;-78
2024/01/16 05:10:17;;;;;;;13.20;9.23;;;2.10;99.90;;;;;;5056705;28;20456;-77
2024/01/16 05:12:44;;;;;;;16.37;10.30;;;2.10;99.90;;;;;;5056011;28;20788;-78
2024/01/16 05:15:12;;;;;;;15.07;10.83;;;2.10;99.90;;;;;;5055300;28;20452;-77
2024/01/16 05:17:40;;;;;;;16.40;9.70;;;2.20;99.90;;;;;;5054045;28;20460;-78
2024/01/16 05:20:10;;;;;;;18.87;10.50;;;2.20;99.90;;;;;;5050477;28;20444;-78
2024/01/16 05:22:38;;;;;;;21.80;9.97;;;2.10;99.90;;;;;;5054870;28;20846;-78
2024/01/16 05:25:06;;;;;;;17.57;10.30;;;2.10;99.90;;;;;;5054378;28;20480;-78
2024/01/16 05:27:33;;;;;;;14.03;9.40;;;2.20;99.90;;;;;;5055152;28;20982;-78
2024/01/16 05:30:00;;;;;;;19.10;9.07;;;2.00;99.90;;;;;;5051908;28;20460;-78
2024/01/16 05:32:27;;;;;;;16.20;12.50;;;2.00;99.90;;;;;;5054208;28;20785;-77
2024/01/16 05:34:55;;;;;;;13.20;8.93;;;2.10;99.90;;;;;;5054453;28;20475;-77
2024/01/16 05:37:22;;;;;;;16.70;9.60;;;2.10;99.90;;;;;;5054665;28;20825;-77
2024/01/16 05:39:49;;;;;;;15.67;8.87;;;2.10;99.90;;;;;;5053438;28;20456;-77
2024/01/16 05:42:16;;;;;;;11.83;9.27;;;2.00;99.90;;;;;;5053549;28;20488;-77
2024/01/16 05:44:44;;;;;;;15.53;8.80;;;2.00;99.90;;;;;;5051083;28;20511;-76
2024/01/16 05:47:11;;;;;;;13.60;7.90;;;2.10;99.90;;;;;;5052019;28;20826;-78
2024/01/16 05:49:41;;;;;;;9.40;6.87;;;2.30;99.90;;;;;;5053401;28;20486;-77
2024/01/16 05:52:10;;;;;;;13.87;7.57;;;2.20;99.90;;;;;;5044804;28;20494;-77
2024/01/16 05:54:36;;;;;;;12.07;7.60;;;2.20;99.90;;;;;;5053328;28;20471;-77
2024/01/16 05:57:03;;;;;;;16.50;7.87;;;2.10;99.90;;;;;;5056940;28;20534;-78
2024/01/16 05:59:33;;;;;;;8.10;6.00;;;2.10;99.90;;;;;;5058680;28;20488;-77
2024/01/16 06:02:00;;;;;;;9.47;6.80;;;2.10;99.90;;;;;;5060244;28;20947;-77
2024/01/16 06:04:27;;;;;;;11.80;7.50;;;2.00;99.90;;;;;;5060667;28;20478;-77
2024/01/16 06:06:56;;;;;;;17.27;6.93;;;2.00;99.90;;;;;;5059400;28;20448;-77
2024/01/16 06:09:24;;;;;;;9.27;6.33;;;2.00;99.90;;;;;;5047944;28;20448;-77
2024/01/16 06:11:51;;;;;;;9.43;6.93;;;2.00;99.90;;;;;;5057328;28;20960;-78
2024/01/16 06:14:21;;;;;;;8.97;6.20;;;1.90;99.90;;;;;;5059757;28;20485;-78
2024/01/16 06:16:48;;;;;;;8.77;5.80;;;1.90;99.90;;;;;;5060339;28;20468;-77
2024/01/16 06:19:15;;;;;;;9.93;5.00;;;2.00;99.90;;;;;;5059150;28;20462;-78
2024/01/16 06:21:42;;;;;;;8.00;5.30;;;2.00;99.90;;;;;;5061070;28;20912;-78
2024/01/16 06:24:11;;;;;;;7.90;5.57;;;2.00;99.90;;;;;;5060770;28;20567;-77
2024/01/16 06:26:39;;;;;;;10.57;4.60;;;1.90;99.90;;;;;;5060564;28;20456;-77
2024/01/16 06:29:07;;;;;;;7.37;5.27;;;2.00;99.90;;;;;;5059445;28;20436;-78
2024/01/16 06:31:34;;;;;;;11.03;5.83;;;2.00;99.90;;;;;;5056204;28;20465;-77
2024/01/16 06:34:01;;;;;;;8.10;4.97;;;2.00;99.90;;;;;;5061641;28;20474;-77
2024/01/16 06:36:27;;;;;;;9.57;6.27;;;2.00;99.90;;;;;;5064861;28;20454;-78
2024/01/16 06:39:00;;;;;;;9.37;5.27;;;1.90;99.90;;;;;;5062615;28;20467;-77
2024/01/16 06:41:30;;;;;;;11.10;6.00;;;2.00;99.90;;;;;;5070008;28;20468;-78
2024/01/16 06:43:58;;;;;;;8.43;6.03;;;2.00;99.90;;;;;;5059659;28;20481;-78
2024/01/16 06:46:25;;;;;;;12.80;8.13;;;2.00;99.90;;;;;;5059849;28;20441;-78
2024/01/16 06:48:52;;;;;;;12.93;8.77;;;2.00;99.90;;;;;;5058622;28;20454;-77
2024/01/16 06:51:18;;;;;;;16.87;11.10;;;1.90;99.90;;;;;;5058233;28;20809;-77
2024/01/16 06:53:45;;;;;;;18.53;10.80;;;1.00;99.90;;;;;;5059760;28;20482;-77
2024/01/16 06:56:12;;;;;;;17.63;11.83;;;2.00;99.90;;;;;;5060494;28;20463;-78
2024/01/16 06:58:39;;;;;;;17.10;12.40;;;2.00;99.90;;;;;;5059292;28;20950;-77
2024/01/16 07:01:10;;;;;;;18.40;12.10;;;2.10;99.90;;;;;;5058098;28;20474;-77
2024/01/16 07:03:37;;;;;;;20.27;14.30;;;2.10;99.90;;;;;;5062570;28;20467;-79
2024/01/16 07:06:04;;;;;;;18.30;13.63;;;2.10;99.90;;;;;;5062089;28;20456;-79
2024/01/16 07:08:31;;;;;;;21.90;15.53;;;2.10;99.90;;;;;;5061189;28;20894;-78
2024/01/16 07:10:58;;;;;;;25.43;16.70;;;2.00;99.90;;;;;;5060037;28;20571;-79
2024/01/16 07:13:24;;;;;;;23.53;15.73;;;1.90;99.90;;;;;;5058819;28;20987;-78
2024/01/16 07:15:51;;;;;;;21.57;15.17;;;1.90;99.90;;;;;;5056908;28;20456;-79
2024/01/16 07:18:19;;;;;;;26.00;15.20;;;1.80;99.90;;;;;;5056544;28;20460;-78
2024/01/16 07:20:46;;;;;;;26.87;17.10;;;1.90;99.90;;;;;;5058031;28;20444;-79
2024/01/16 07:23:13;;;;;;;27.47;15.03;;;1.80;99.90;;;;;;5057385;28;20483;-79
2024/01/16 07:25:40;;;;;;;20.03;13.90;;;1.70;99.90;;;;;;5058321;28;20492;-79
2024/01/16 07:28:08;;;;;;;21.97;13.10;;;1.70;99.90;;;;;;5062819;28;20436;-78
2024/01/16 07:30:36;;;;;;;19.10;13.93;;;1.60;99.90;;;;;;5069271;28;20446;-77
2024/01/16 07:33:03;;;;;;;23.17;13.37;;;1.70;99.90;;;;;;5073457;28;20470;-78
2024/01/16 07:35:32;;;;;;;21.00;12.07;;;1.60;99.90;;;;;;5056985;28;20454;-79
2024/01/16 07:37:59;;;;;;;23.33;12.60;;;1.70;99.90;;;;;;5053671;28;20520;-77
2024/01/16 07:40:25;;;;;;;18.03;10.63;;;1.60;99.90;;;;;;5053382;28;20455;-77
2024/01/16 07:42:52;;;;;;;16.27;9.53;;;1.60;99.90;;;;;;5053864;28;20892;-78
2024/01/16 07:45:19;;;;;;;21.30;10.17;;;1.60;99.90;;;;;;5060924;28;20444;-77
2024/01/16 07:47:46;;;;;;;14.23;9.10;;;1.60;99.90;;;;;;5053339;28;20460;-78
2024/01/16 07:50:13;;;;;;;20.50;8.87;;;1.60;99.90;;;;;;5056934;28;20459;-80
2024/01/16 07:52:41;;;;;;;12.00;8.03;;;1.60;99.90;;;;;;5060755;28;20447;-77
2024/01/16 07:55:08;;;;;;;10.80;7.90;;;1.60;99.90;;;;;;5069462;28;20510;-78
2024/01/16 07:57:34;;;;;;;10.97;6.53;;;1.50;99.90;;;;;;5071412;28;20451;-78
2024/01/16 08:00:03;;;;;;;14.27;8.00;;;1.60;99.90;;;;;;5067167;28;20448;-77
2024/01/16 08:02:37;;;;;;;12.67;6.83;;;1.60;99.90;;;;;;5054580;28;20458;-78
2024/01/16 08:05:04;;;;;;;13.10;6.73;;;1.60;99.90;;;;;;5063475;28;20458;-78
2024/01/16 08:07:31;;;;;;;10.90;5.80;;;1.50;99.90;;;;;;5060522;28;20466;-78
2024/01/16 08:09:59;;;;;;;18.50;6.60;;;1.60;99.90;;;;;;5058553;28;20466;-78
2024/01/16 08:12:26;;;;;;;13.33;6.60;;;1.70;99.90;;;;;;5058236;28;20431;-78
2024/01/16 08:14:53;;;;;;;9.60;5.83;;;1.70;99.90;;;;;;5057654;28;20478;-77
2024/01/16 08:17:19;;;;;;;7.30;5.60;;;1.80;99.90;;;;;;5061899;28;20470;-77
2024/01/16 08:19:46;;;;;;;8.90;5.67;;;1.70;99.90;;;;;;5058669;28;20465;-78
2024/01/16 08:22:13;;;;;;;9.90;6.20;;;1.80;99.90;;;;;;5051666;28;20573;-78
2024/01/16 08:24:40;;;;;;;15.20;5.10;;;1.80;99.90;;;;;;5055760;28;20474;-78
2024/01/16 08:27:08;;;;;;;11.97;4.50;;;1.80;99.90;;;;;;5054124;28;20455;-78
2024/01/16 08:29:35;;;;;;;10.07;4.20;;;1.70;99.90;;;;;;5053025;28;20846;-78
2024/01/16 08:32:02;;;;;;;7.53;4.60;;;1.80;99.90;;;;;;5053372;28;20474;-78
2024/01/16 08:34:28;;;;;;;9.87;3.90;;;1.80;99.90;;;;;;5054505;28;20471;-78
2024/01/16 08:36:56;;;;;;;11.23;4.30;;;1.80;99.90;;;;;;5062807;28;20464;-77
2024/01/16 08:39:23;;;;;;;5.70;3.33;;;1.80;99.90;;;;;;5048822;28;20471;-76
2024/01/16 08:41:50;;;;;;;8.30;4.37;;;1.90;99.90;;;;;;5046420;28;20452;-77
2024/01/16 08:44:18;;;;;;;8.73;3.87;;;1.80;99.90;;;;;;5046022;28;20482;-77
2024/01/16 08:46:46;;;;;;;7.03;3.07;;;1.90;99.90;;;;;;5047892;28;20440;-77
2024/01/16 08:49:13;;;;;;;10.90;3.30;;;1.90;99.90;;;;;;5048189;28;20471;-76
2024/01/16 08:51:41;;;;;;;7.70;3.33;;;1.80;99.90;;;;;;5049109;28;20545;-77
2024/01/16 08:54:08;;;;;;;10.20;3.70;;;1.80;99.90;;;;;;5043144;28;20471;-77
2024/01/16 08:56:34;;;;;;;13.23;4.57;;;1.70;99.90;;;;;;5045382;28;20955;-77
2024/01/16 08:59:01;;;;;;;5.27;2.90;;;1.70;99.90;;;;;;5033652;28;20475;-77
2024/01/16 09:01:29;;;;;;;7.63;3.77;;;1.70;99.90;;;;;;5048957;28;20544;-77
2024/01/16 09:03:57;;;;;;;7.83;2.97;;;1.70;99.90;;;;;;5049973;28;20497;-77
2024/01/16 09:06:23;;;;;;;16.57;3.03;;;1.70;99.90;;;;;;5047740;28;20440;-77
2024/01/16 09:08:50;;;;;;;9.27;3.10;;;1.70;99.90;;;;;;5048829;28;20481;-76
2024/01/16 09:11:17;;;;;;;7.63;2.93;;;1.80;99.90;;;;;;5045889;28;20456;-77
2024/01/16 09:13:44;;;;;;;7.37;3.60;;;1.80;99.90;;;;;;5045779;28;20469;-77
2024/01/16 09:16:11;;;;;;;6.93;2.70;;;1.80;99.90;;;;;;5048190;28;20444;-77
2024/01/16 09:18:39;;;;;;;9.63;3.07;;;1.90;99.90;;;;;;5049233;28;20948;-77
2024/01/16 09:21:06;;;;;;;8.23;2.77;;;1.90;99.90;;;;;;5052599;28;20455;-77
2024/01/16 09:23:33;;;;;;;13.00;2.97;;;1.90;99.90;;;;;;5053886;28;20506;-77
2024/01/16 09:26:00;;;;;;;6.80;2.30;;;1.80;99.90;;;;;;5053773;28;20554;-77
2024/01/16 09:28:28;;;;;;;11.47;3.50;;;1.80;99.90;;;;;;5056185;28;21023;-77
2024/01/16 09:30:56;;;;;;;5.57;3.50;;;1.90;99.90;;;;;;5047259;28;20460;-77
2024/01/16 09:33:23;;;;;;;5.47;2.33;;;1.90;99.90;;;;;;5047383;28;20527;-77
2024/01/16 09:35:51;;;;;;;6.20;2.60;;;1.80;99.90;;;;;;5050613;28;20458;-77
2024/01/16 09:38:17;;;;;;;6.07;2.87;;;1.80;99.90;;;;;;5052051;28;20474;-78
2024/01/16 09:40:45;;;;;;;5.23;2.47;;;2.00;99.90;;;;;;5048533;28;20458;-78
2024/01/16 09:43:13;;;;;;;5.33;2.07;;;2.10;99.90;;;;;;5051220;28;20500;-78
2024/01/16 09:45:40;;;;;;;6.27;2.67;;;2.30;99.90;;;;;;5053043;28;20451;-78
2024/01/16 09:48:08;;;;;;;3.73;2.17;;;2.30;99.90;;;;;;5052566;28;20456;-78
2024/01/16 09:50:35;;;;;;;9.10;3.50;;;2.30;99.90;;;;;;5050050;28;20427;-78
2024/01/16 09:53:10;;;;;;;5.13;2.70;;;2.50;99.90;;;;;;5049265;28;20455;-77
2024/01/16 09:55:40;;;;;;;9.30;2.90;;;2.40;99.90;;;;;;5053383;28;20451;-78
2024/01/16 09:58:17;;;;;;;5.40;3.00;;;2.50;99.90;;;;;;5044714;28;20515;-78
2024/01/16 10:00:45;;;;;;;5.17;2.30;;;2.30;99.90;;;;;;5049410;28;20670;-78
2024/01/16 10:03:13;;;;;;;5.33;2.60;;;2.40;99.90;;;;;;5053434;28;20856;-78
2024/01/16 10:05:41;;;;;;;6.50;2.60;;;2.60;99.90;;;;;;5053496;28;20471;-78
2024/01/16 10:08:09;;;;;;;11.10;2.17;;;2.50;99.90;;;;;;5052760;28;20450;-78
2024/01/16 10:10:39;;;;;;;6.23;2.73;;;2.50;99.90;;;;;;5051650;28;20546;-77
2024/01/16 10:15:56;;;;;;;6.23;2.50;;;2.60;99.90;;;;;;5048945;28;20819;-78
2024/01/16 10:18:38;;;;;;;9.67;2.70;;;2.60;99.90;;;;;;5054040;28;20479;-78
2024/01/16 10:21:05;;;;;;;5.83;2.43;;;2.70;99.90;;;;;;5060447;28;20824;-78
2024/01/16 10:23:34;;;;;;;6.30;2.77;;;2.70;99.90;;;;;;5047631;28;20563;-78
2024/01/16 10:26:08;;;;;;;3.83;2.57;;;2.90;99.90;;;;;;5054907;28;20486;-78
2024/01/16 10:28:35;;;;;;;6.43;2.60;;;3.00;99.90;;;;;;5053555;28;20452;-78
2024/01/16 10:31:05;;;;;;;10.53;3.40;;;3.00;99.90;;;;;;5054051;28;20451;-78
2024/01/16 10:33:32;;;;;;;7.73;2.63;;;3.00;99.90;;;;;;5048917;28;20495;-78
2024/01/16 10:36:13;;;;;;;5.40;2.43;;;3.10;99.90;;;;;;5051577;28;20452;-78
2024/01/16 10:38:43;;;;;;;10.73;3.10;;;3.20;99.90;;;;;;5052714;28;20457;-78
2024/01/16 10:41:11;;;;;;;5.50;2.97;;;3.30;99.90;;;;;;5048843;28;20470;-78
2024/01/16 10:43:38;;;;;;;9.13;3.50;;;3.30;99.90;;;;;;5055117;28;20523;-78
2024/01/16 10:46:11;;;;;;;8.03;2.70;;;3.30;99.90;;;;;;5052648;28;20456;-78
2024/01/16 10:48:39;;;;;;;9.07;2.87;;;3.40;99.90;;;;;;5051716;28;20451;-77
2024/01/16 10:51:12;;;;;;;3.83;2.33;;;3.40;99.90;;;;;;5056171;28;20455;-78
2024/01/16 10:53:42;;;;;;;5.53;2.47;;;3.40;99.90;;;;;;5058132;28;20997;-78
2024/01/16 10:56:11;;;;;;;8.30;2.27;;;3.60;99.90;;;;;;5059491;28;20445;-78
2024/01/16 10:58:41;;;;;;;9.77;2.83;;;3.70;99.90;;;;;;5060326;28;20452;-78
2024/01/16 11:01:12;;;;;;;5.00;2.80;;;3.90;99.90;;;;;;5058692;28;20471;-78
2024/01/16 11:03:44;;;;;;;6.70;2.70;;;3.80;99.90;;;;;;5058499;28;20483;-78
2024/01/16 11:06:13;;;;;;;6.20;2.80;;;4.10;99.90;;;;;;5056618;28;20450;-78
2024/01/16 11:08:42;;;;;;;3.90;2.03;;;4.10;99.90;;;;;;5060449;28;20463;-78
2024/01/16 11:11:09;;;;;;;6.23;2.73;;;4.10;99.90;;;;;;5055988;28;20470;-78
2024/01/16 11:13:44;;;;;;;5.30;2.27;;;3.80;99.90;;;;;;5058802;28;20475;-75
2024/01/16 11:16:12;;;;;;;6.67;2.60;;;3.80;99.90;;;;;;5048424;28;20504;-77
2024/01/16 11:18:39;;;;;;;8.83;2.90;;;3.80;99.90;;;;;;5056199;28;20967;-77
2024/01/16 11:21:09;;;;;;;8.97;2.50;;;3.40;99.90;;;;;;5059784;28;20532;-77
2024/01/16 11:23:37;;;;;;;9.10;3.10;;;3.40;99.90;;;;;;5065926;28;20502;-77
2024/01/16 11:26:32;;;;;;;8.87;2.90;;;3.30;99.90;;;;;;5065833;28;20544;-79
2024/01/16 11:29:00;;;;;;;5.23;2.60;;;3.60;99.90;;;;;;5057809;28;20473;-78
2024/01/16 11:31:31;;;;;;;5.57;2.60;;;3.90;99.90;;;;;;5056989;28;20968;-78
2024/01/16 11:34:00;;;;;;;7.73;3.17;;;4.40;99.90;;;;;;5058222;28;20559;-78
2024/01/16 11:36:50;;;;;;;5.27;2.60;;;4.80;99.90;;;;;;5057130;28;20846;-76
2024/01/16 11:39:21;;;;;;;4.33;2.60;;;5.80;99.90;;;;;;5060141;28;20461;-78
2024/01/16 11:41:58;;;;;;;6.70;2.70;;;7.30;99.90;;;;;;5058206;28;20533;-77
2024/01/16 11:44:39;;;;;;;5.77;2.70;;;8.60;99.90;;;;;;5061138;28;20501;-78
2024/01/16 11:47:07;;;;;;;8.87;3.03;;;8.60;96.50;;;;;;5056915;28;20494;-78
2024/01/16 11:49:34;;;;;;;6.93;3.10;;;9.00;95.70;;;;;;5053782;28;20507;-78
2024/01/16 11:52:01;;;;;;;4.23;2.50;;;9.10;96.10;;;;;;5057657;28;20460;-78
2024/01/16 11:54:28;;;;;;;6.60;3.13;;;9.90;93.20;;;;;;5054543;28;20470;-78
2024/01/16 11:57:36;;;;;;;7.30;3.50;;;10.90;90.40;;;;;;5067633;28;20526;-79
2024/01/16 12:00:12;;;;;;;6.73;3.03;;;11.10;85.60;;;;;;5064883;28;20687;-78
2024/01/16 12:02:53;;;;;;;7.43;2.80;;;10.10;92.20;;;;;;5056978;28;20453;-78
2024/01/16 12:05:20;;;;;;;11.90;2.70;;;9.60;85.60;;;;;;5048211;28;20450;-78
2024/01/16 12:07:49;;;;;;;4.33;2.43;;;8.50;91.50;;;;;;5056711;28;20473;-77
2024/01/16 12:10:17;;;;;;;8.50;3.10;;;8.30;90.40;;;;;;5055189;28;20451;-79
2024/01/16 12:12:47;;;;;;;7.10;3.20;;;9.20;90.20;;;;;;5057206;28;20545;-79
2024/01/16 12:15:18;;;;;;;7.57;3.33;;;9.80;86.80;;;;;;5057386;28;20465;-79
2024/01/16 12:17:55;;;;;;;6.07;3.00;;;11.90;84.50;;;;;;5056450;28;20455;-78
2024/01/16 12:20:25;;;;;;;7.17;2.90;;;13.20;78.70;;;;;;5055531;28;20457;-78
2024/01/16 12:22:56;;;;;;;5.93;2.70;;;13.00;74.40;;;;;;5055270;28;20467;-79
2024/01/16 12:45:38;;;;;;;4.97;2.67;;;9.40;77.60;;;;;;5087149;27;20607;-80
2024/01/16 12:48:07;;;;;;;6.70;2.70;;;6.60;86.00;;;;;;5093073;28;20545;-80
2024/01/16 12:50:35;;;;;;;13.80;3.57;;;6.10;88.00;;;;;;5089366;28;20458;-81
2024/01/16 12:53:08;;;;;;;8.37;3.70;;;5.80;89.00;;;;;;5082428;28;20554;-81
2024/01/16 12:55:36;;;;;;;7.60;3.10;;;5.80;90.40;;;;;;5087843;28;20551;-81
2024/01/16 12:58:17;;;;;;;6.43;3.27;;;5.30;90.90;;;;;;5083179;28;20465;-81
2024/01/16 13:00:46;;;;;;;7.20;2.67;;;5.10;92.40;;;;;;5090339;28;20539;-81
2024/01/16 13:03:18;;;;;;;8.47;2.70;;;5.20;93.70;;;;;;5092145;28;20540;-82
2024/01/16 13:05:46;;;;;;;9.33;3.57;;;5.30;98.30;;;;;;5092786;28;20473;-81
2024/01/16 13:08:20;;;;;;;8.60;3.10;;;5.10;99.90;;;;;;5093163;28;20504;-80
2024/01/16 13:10:47;;;;;;;6.50;3.13;;;5.90;99.60;;;;;;5091738;28;20835;-81
2024/01/16 13:13:17;;;;;;;11.17;6.23;;;5.70;97.10;;;;;;5090780;28;20529;-82
2024/01/16 13:15:48;;;;;;;6.33;2.73;;;5.60;98.60;;;;;;5089338;28;20464;-81
2024/01/16 13:18:20;;;;;;;4.90;2.83;;;5.30;99.90;;;;;;5092123;28;20467;-83